sensor_id;sensor_type;location;lat;lon;timestamp;P1;durP1;ratioP1;P2;durP2;ratioP2
3941;SDS011;1985;48.592;8.850;2024-02-21T00:00:52;21.58;;;6.65;;
3941;SDS011;1985;48.592;8.850;2024-02-21T00:03:18;23.75;;;6.53;;
3941;SDS011;1985;48.592;8.850;2024-02-21T00:05:44;21.13;;;6.18;;
3941;SDS011;1985;48.592;8.850;2024-02-21T00:08:10;23.02;;;6.63;;
3941;SDS011;1985;48.592;8.850;2024-02-21T00:10:35;15.87;;;5.90;;
3941;SDS011;1985;48.592;8.850;2024-02-21T00:13:01;20.60;;;6.13;;
3941;SDS011;1985;48.592;8.850;2024-02-21T00:15:27;22.98;;;6.50;;
3941;SDS011;1985;48.592;8.850;2024-02-21T00:17:53;23.05;;;5.80;;
3941;SDS011;1985;48.592;8.850;2024-02-21T00:20:18;22.43;;;5.80;;
3941;SDS011;1985;48.592;8.850;2024-02-21T00:22:45;22.30;;;6.75;;
3941;SDS011;1985;48.592;8.850;2024-02-21T00:25:11;20.63;;;5.90;;
3941;SDS011;1985;48.592;8.850;2024-02-21T00:27:36;20.60;;;6.50;;
3941;SDS011;1985;48.592;8.850;2024-02-21T00:30:03;20.60;;;6.85;;
3941;SDS011;1985;48.592;8.850;2024-02-21T00:32:29;23.98;;;6.80;;
3941;SDS011;1985;48.592;8.850;2024-02-21T00:34:54;19.73;;;5.97;;
3941;SDS011;1985;48.592;8.850;2024-02-21T00:37:20;21.83;;;7.00;;
3941;SDS011;1985;48.592;8.850;2024-02-21T00:39:46;24.93;;;6.50;;
3941;SDS011;1985;48.592;8.850;2024-02-21T00:42:11;20.20;;;6.38;;
3941;SDS011;1985;48.592;8.850;2024-02-21T00:44:37;18.93;;;6.60;;
3941;SDS011;1985;48.592;8.850;2024-02-21T00:47:02;19.77;;;6.00;;
3941;SDS011;1985;48.592;8.850;2024-02-21T00:49:28;20.50;;;6.40;;
3941;SDS011;1985;48.592;8.850;2024-02-21T00:51:54;20.10;;;6.03;;
3941;SDS011;1985;48.592;8.850;2024-02-21T00:54:19;19.80;;;6.43;;
3941;SDS011;1985;48.592;8.850;2024-02-21T00:56:45;19.98;;;6.47;;
3941;SDS011;1985;48.592;8.850;2024-02-21T00:59:11;19.20;;;6.10;;
3941;SDS011;1985;48.592;8.850;2024-02-21T01:01:36;25.40;;;7.13;;
3941;SDS011;1985;48.592;8.850;2024-02-21T01:04:02;19.35;;;6.40;;
3941;SDS011;1985;48.592;8.850;2024-02-21T01:06:28;21.63;;;5.80;;
3941;SDS011;1985;48.592;8.850;2024-02-21T01:08:53;21.63;;;6.60;;
3941;SDS011;1985;48.592;8.850;2024-02-21T01:11:19;20.80;;;6.73;;
3941;SDS011;1985;48.592;8.850;2024-02-21T01:13:45;26.13;;;5.78;;
3941;SDS011;1985;48.592;8.850;2024-02-21T01:16:10;21.42;;;6.22;;
3941;SDS011;1985;48.592;8.850;2024-02-21T01:18:39;23.20;;;5.97;;
3941;SDS011;1985;48.592;8.850;2024-02-21T01:21:05;21.63;;;6.80;;
3941;SDS011;1985;48.592;8.850;2024-02-21T01:23:32;18.42;;;6.07;;
3941;SDS011;1985;48.592;8.850;2024-02-21T01:25:59;16.55;;;4.85;;
3941;SDS011;1985;48.592;8.850;2024-02-21T01:28:25;20.00;;;5.20;;
3941;SDS011;1985;48.592;8.850;2024-02-21T01:30:50;19.55;;;5.70;;
3941;SDS011;1985;48.592;8.850;2024-02-21T01:33:16;15.05;;;5.80;;
3941;SDS011;1985;48.592;8.850;2024-02-21T01:35:42;17.25;;;5.43;;
3941;SDS011;1985;48.592;8.850;2024-02-21T01:38:08;15.70;;;5.05;;
3941;SDS011;1985;48.592;8.850;2024-02-21T01:40:33;15.80;;;4.80;;
3941;SDS011;1985;48.592;8.850;2024-02-21T01:42:59;20.60;;;5.20;;
3941;SDS011;1985;48.592;8.850;2024-02-21T01:45:25;15.73;;;5.28;;
3941;SDS011;1985;48.592;8.850;2024-02-21T01:47:50;21.93;;;5.70;;
3941;SDS011;1985;48.592;8.850;2024-02-21T01:50:16;21.75;;;6.20;;
3941;SDS011;1985;48.592;8.850;2024-02-21T01:52:43;17.48;;;4.45;;
3941;SDS011;1985;48.592;8.850;2024-02-21T01:55:11;18.23;;;4.85;;
3941;SDS011;1985;48.592;8.850;2024-02-21T01:57:39;17.90;;;5.20;;
3941;SDS011;1985;48.592;8.850;2024-02-21T02:00:08;18.88;;;5.10;;
3941;SDS011;1985;48.592;8.850;2024-02-21T02:02:35;19.45;;;5.00;;
3941;SDS011;1985;48.592;8.850;2024-02-21T02:05:02;15.13;;;4.88;;
3941;SDS011;1985;48.592;8.850;2024-02-21T02:07:29;17.75;;;4.53;;
3941;SDS011;1985;48.592;8.850;2024-02-21T02:09:54;15.95;;;4.90;;
3941;SDS011;1985;48.592;8.850;2024-02-21T02:12:20;18.75;;;4.28;;
3941;SDS011;1985;48.592;8.850;2024-02-21T02:14:46;18.05;;;4.80;;
3941;SDS011;1985;48.592;8.850;2024-02-21T02:17:25;13.35;;;3.80;;
3941;SDS011;1985;48.592;8.850;2024-02-21T02:19:51;17.05;;;4.78;;
3941;SDS011;1985;48.592;8.850;2024-02-21T02:22:18;15.67;;;4.20;;
3941;SDS011;1985;48.592;8.850;2024-02-21T02:24:48;19.83;;;4.60;;
3941;SDS011;1985;48.592;8.850;2024-02-21T02:27:14;19.67;;;4.03;;
3941;SDS011;1985;48.592;8.850;2024-02-21T02:29:40;16.15;;;4.18;;
3941;SDS011;1985;48.592;8.850;2024-02-21T02:32:06;14.93;;;3.90;;
3941;SDS011;1985;48.592;8.850;2024-02-21T02:34:31;18.07;;;4.50;;
3941;SDS011;1985;48.592;8.850;2024-02-21T02:36:57;15.90;;;3.70;;
3941;SDS011;1985;48.592;8.850;2024-02-21T02:39:22;14.70;;;4.10;;
3941;SDS011;1985;48.592;8.850;2024-02-21T02:41:48;21.67;;;4.27;;
3941;SDS011;1985;48.592;8.850;2024-02-21T02:44:14;17.80;;;3.80;;
3941;SDS011;1985;48.592;8.850;2024-02-21T02:46:40;19.13;;;4.23;;
3941;SDS011;1985;48.592;8.850;2024-02-21T02:49:06;16.85;;;3.67;;
3941;SDS011;1985;48.592;8.850;2024-02-21T02:51:32;20.90;;;3.67;;
3941;SDS011;1985;48.592;8.850;2024-02-21T02:53:57;21.57;;;4.60;;
3941;SDS011;1985;48.592;8.850;2024-02-21T02:56:23;14.80;;;3.40;;
3941;SDS011;1985;48.592;8.850;2024-02-21T02:58:48;15.45;;;3.58;;
3941;SDS011;1985;48.592;8.850;2024-02-21T03:01:14;15.20;;;3.90;;
3941;SDS011;1985;48.592;8.850;2024-02-21T03:03:40;13.07;;;3.20;;
3941;SDS011;1985;48.592;8.850;2024-02-21T03:06:06;13.20;;;3.20;;
3941;SDS011;1985;48.592;8.850;2024-02-21T03:08:31;16.90;;;3.70;;
3941;SDS011;1985;48.592;8.850;2024-02-21T03:11:00;13.98;;;3.40;;
3941;SDS011;1985;48.592;8.850;2024-02-21T03:13:25;16.50;;;3.80;;
3941;SDS011;1985;48.592;8.850;2024-02-21T03:15:51;17.90;;;3.72;;
3941;SDS011;1985;48.592;8.850;2024-02-21T03:18:17;16.13;;;3.30;;
3941;SDS011;1985;48.592;8.850;2024-02-21T03:20:42;12.77;;;3.20;;
3941;SDS011;1985;48.592;8.850;2024-02-21T03:23:08;15.60;;;3.78;;
3941;SDS011;1985;48.592;8.850;2024-02-21T03:25:34;16.00;;;3.60;;
3941;SDS011;1985;48.592;8.850;2024-02-21T03:27:59;14.15;;;3.47;;
3941;SDS011;1985;48.592;8.850;2024-02-21T03:30:25;23.13;;;3.40;;
3941;SDS011;1985;48.592;8.850;2024-02-21T03:32:51;17.50;;;3.10;;
3941;SDS011;1985;48.592;8.850;2024-02-21T03:35:16;20.35;;;3.63;;
3941;SDS011;1985;48.592;8.850;2024-02-21T03:37:42;14.98;;;3.50;;
3941;SDS011;1985;48.592;8.850;2024-02-21T03:40:10;16.67;;;3.35;;
3941;SDS011;1985;48.592;8.850;2024-02-21T03:42:37;21.02;;;3.90;;
3941;SDS011;1985;48.592;8.850;2024-02-21T03:45:03;15.98;;;3.22;;
3941;SDS011;1985;48.592;8.850;2024-02-21T03:47:29;16.07;;;3.33;;
3941;SDS011;1985;48.592;8.850;2024-02-21T03:49:54;17.20;;;2.83;;
3941;SDS011;1985;48.592;8.850;2024-02-21T03:52:20;17.88;;;3.00;;
3941;SDS011;1985;48.592;8.850;2024-02-21T03:54:46;14.30;;;3.50;;
3941;SDS011;1985;48.592;8.850;2024-02-21T03:57:11;11.63;;;2.60;;
3941;SDS011;1985;48.592;8.850;2024-02-21T03:59:37;19.55;;;3.40;;
3941;SDS011;1985;48.592;8.850;2024-02-21T04:02:05;12.90;;;3.65;;
3941;SDS011;1985;48.592;8.850;2024-02-21T04:04:33;15.85;;;4.00;;
3941;SDS011;1985;48.592;8.850;2024-02-21T04:07:00;14.20;;;2.92;;
3941;SDS011;1985;48.592;8.850;2024-02-21T04:09:26;12.90;;;2.70;;
3941;SDS011;1985;48.592;8.850;2024-02-21T04:11:52;14.80;;;3.10;;
3941;SDS011;1985;48.592;8.850;2024-02-21T04:14:18;13.90;;;2.90;;
3941;SDS011;1985;48.592;8.850;2024-02-21T04:16:43;14.63;;;3.60;;
3941;SDS011;1985;48.592;8.850;2024-02-21T04:19:09;16.45;;;4.07;;
3941;SDS011;1985;48.592;8.850;2024-02-21T04:21:34;21.57;;;3.90;;
3941;SDS011;1985;48.592;8.850;2024-02-21T04:24:00;17.87;;;4.10;;
3941;SDS011;1985;48.592;8.850;2024-02-21T04:26:27;16.70;;;3.92;;
3941;SDS011;1985;48.592;8.850;2024-02-21T04:28:52;18.60;;;3.70;;
3941;SDS011;1985;48.592;8.850;2024-02-21T04:31:18;14.97;;;3.33;;
3941;SDS011;1985;48.592;8.850;2024-02-21T04:33:44;14.30;;;3.90;;
3941;SDS011;1985;48.592;8.850;2024-02-21T04:36:09;14.57;;;3.77;;
3941;SDS011;1985;48.592;8.850;2024-02-21T04:38:35;16.63;;;3.58;;
3941;SDS011;1985;48.592;8.850;2024-02-21T04:41:00;14.77;;;3.67;;
3941;SDS011;1985;48.592;8.850;2024-02-21T04:43:26;17.00;;;3.27;;
3941;SDS011;1985;48.592;8.850;2024-02-21T04:45:52;16.30;;;4.07;;
3941;SDS011;1985;48.592;8.850;2024-02-21T04:48:18;15.82;;;4.00;;
3941;SDS011;1985;48.592;8.850;2024-02-21T04:50:44;14.15;;;3.50;;
3941;SDS011;1985;48.592;8.850;2024-02-21T04:53:10;13.52;;;3.50;;
3941;SDS011;1985;48.592;8.850;2024-02-21T04:55:35;16.38;;;3.90;;
3941;SDS011;1985;48.592;8.850;2024-02-21T04:58:01;14.57;;;3.50;;
3941;SDS011;1985;48.592;8.850;2024-02-21T05:00:27;16.58;;;4.00;;
3941;SDS011;1985;48.592;8.850;2024-02-21T05:02:53;12.80;;;3.47;;
3941;SDS011;1985;48.592;8.850;2024-02-21T05:05:19;19.60;;;3.80;;
3941;SDS011;1985;48.592;8.850;2024-02-21T05:07:44;12.32;;;3.05;;
3941;SDS011;1985;48.592;8.850;2024-02-21T05:10:10;13.00;;;3.70;;
3941;SDS011;1985;48.592;8.850;2024-02-21T05:12:35;15.70;;;3.90;;
3941;SDS011;1985;48.592;8.850;2024-02-21T05:15:01;16.40;;;3.20;;
3941;SDS011;1985;48.592;8.850;2024-02-21T05:17:28;13.63;;;3.40;;
3941;SDS011;1985;48.592;8.850;2024-02-21T05:19:54;14.40;;;3.80;;
3941;SDS011;1985;48.592;8.850;2024-02-21T05:22:19;14.43;;;3.28;;
3941;SDS011;1985;48.592;8.850;2024-02-21T05:24:45;14.57;;;3.33;;
3941;SDS011;1985;48.592;8.850;2024-02-21T05:27:10;13.90;;;3.60;;
3941;SDS011;1985;48.592;8.850;2024-02-21T05:29:36;11.00;;;2.92;;
3941;SDS011;1985;48.592;8.850;2024-02-21T05:32:02;19.03;;;4.20;;
3941;SDS011;1985;48.592;8.850;2024-02-21T05:34:27;13.20;;;3.40;;
3941;SDS011;1985;48.592;8.850;2024-02-21T05:36:53;15.25;;;3.80;;
3941;SDS011;1985;48.592;8.850;2024-02-21T05:39:19;14.80;;;3.83;;
3941;SDS011;1985;48.592;8.850;2024-02-21T05:41:47;16.50;;;3.40;;
3941;SDS011;1985;48.592;8.850;2024-02-21T05:44:13;14.20;;;3.20;;
3941;SDS011;1985;48.592;8.850;2024-02-21T05:46:38;18.63;;;4.10;;
3941;SDS011;1985;48.592;8.850;2024-02-21T05:49:04;14.88;;;3.70;;
3941;SDS011;1985;48.592;8.850;2024-02-21T05:51:33;15.30;;;3.53;;
3941;SDS011;1985;48.592;8.850;2024-02-21T05:53:59;11.68;;;3.50;;
3941;SDS011;1985;48.592;8.850;2024-02-21T05:56:24;14.87;;;4.77;;
3941;SDS011;1985;48.592;8.850;2024-02-21T05:58:50;18.40;;;4.30;;
3941;SDS011;1985;48.592;8.850;2024-02-21T06:01:16;14.15;;;4.03;;
3941;SDS011;1985;48.592;8.850;2024-02-21T06:03:42;14.68;;;3.95;;
3941;SDS011;1985;48.592;8.850;2024-02-21T06:06:08;16.37;;;4.00;;
3941;SDS011;1985;48.592;8.850;2024-02-21T06:08:34;19.37;;;4.70;;
3941;SDS011;1985;48.592;8.850;2024-02-21T06:11:00;17.80;;;4.00;;
3941;SDS011;1985;48.592;8.850;2024-02-21T06:13:26;16.10;;;3.60;;
3941;SDS011;1985;48.592;8.850;2024-02-21T06:15:51;17.87;;;4.37;;
3941;SDS011;1985;48.592;8.850;2024-02-21T06:18:17;21.50;;;4.47;;
3941;SDS011;1985;48.592;8.850;2024-02-21T06:20:43;17.42;;;3.92;;
3941;SDS011;1985;48.592;8.850;2024-02-21T06:23:09;15.23;;;3.90;;
3941;SDS011;1985;48.592;8.850;2024-02-21T06:25:36;16.42;;;4.30;;
3941;SDS011;1985;48.592;8.850;2024-02-21T06:28:02;12.88;;;3.38;;
3941;SDS011;1985;48.592;8.850;2024-02-21T06:30:28;15.02;;;3.45;;
3941;SDS011;1985;48.592;8.850;2024-02-21T06:32:54;11.73;;;3.20;;
3941;SDS011;1985;48.592;8.850;2024-02-21T06:35:24;14.23;;;3.50;;
3941;SDS011;1985;48.592;8.850;2024-02-21T06:37:50;19.15;;;4.20;;
3941;SDS011;1985;48.592;8.850;2024-02-21T06:40:20;16.70;;;3.53;;
3941;SDS011;1985;48.592;8.850;2024-02-21T06:42:47;14.65;;;3.72;;
3941;SDS011;1985;48.592;8.850;2024-02-21T06:45:13;16.73;;;3.87;;
3941;SDS011;1985;48.592;8.850;2024-02-21T06:47:39;16.00;;;3.73;;
3941;SDS011;1985;48.592;8.850;2024-02-21T06:50:04;18.73;;;4.50;;
3941;SDS011;1985;48.592;8.850;2024-02-21T06:52:30;13.95;;;3.05;;
3941;SDS011;1985;48.592;8.850;2024-02-21T06:54:56;13.52;;;3.15;;
3941;SDS011;1985;48.592;8.850;2024-02-21T06:57:22;14.75;;;2.88;;
3941;SDS011;1985;48.592;8.850;2024-02-21T06:59:47;13.53;;;3.73;;
3941;SDS011;1985;48.592;8.850;2024-02-21T07:02:13;15.20;;;3.37;;
3941;SDS011;1985;48.592;8.850;2024-02-21T07:04:39;13.82;;;2.83;;
3941;SDS011;1985;48.592;8.850;2024-02-21T07:07:04;18.35;;;3.70;;
3941;SDS011;1985;48.592;8.850;2024-02-21T07:09:30;11.73;;;2.87;;
3941;SDS011;1985;48.592;8.850;2024-02-21T07:12:00;13.40;;;3.10;;
3941;SDS011;1985;48.592;8.850;2024-02-21T07:14:27;15.95;;;3.40;;
3941;SDS011;1985;48.592;8.850;2024-02-21T07:16:53;14.73;;;3.33;;
3941;SDS011;1985;48.592;8.850;2024-02-21T07:19:19;14.80;;;3.00;;
3941;SDS011;1985;48.592;8.850;2024-02-21T07:21:45;12.95;;;3.15;;
3941;SDS011;1985;48.592;8.850;2024-02-21T07:24:11;14.20;;;3.80;;
3941;SDS011;1985;48.592;8.850;2024-02-21T07:26:37;14.55;;;3.20;;
3941;SDS011;1985;48.592;8.850;2024-02-21T07:29:06;19.55;;;4.00;;
3941;SDS011;1985;48.592;8.850;2024-02-21T07:31:31;17.97;;;3.60;;
3941;SDS011;1985;48.592;8.850;2024-02-21T07:34:06;16.07;;;3.50;;
3941;SDS011;1985;48.592;8.850;2024-02-21T07:36:32;17.73;;;3.73;;
3941;SDS011;1985;48.592;8.850;2024-02-21T07:38:58;13.88;;;3.47;;
3941;SDS011;1985;48.592;8.850;2024-02-21T07:41:24;15.77;;;3.50;;
3941;SDS011;1985;48.592;8.850;2024-02-21T07:43:50;19.00;;;3.55;;
3941;SDS011;1985;48.592;8.850;2024-02-21T07:46:17;15.90;;;3.50;;
3941;SDS011;1985;48.592;8.850;2024-02-21T07:48:43;19.00;;;3.70;;
3941;SDS011;1985;48.592;8.850;2024-02-21T07:51:10;15.13;;;3.10;;
3941;SDS011;1985;48.592;8.850;2024-02-21T07:53:36;14.90;;;2.80;;
3941;SDS011;1985;48.592;8.850;2024-02-21T07:56:03;14.50;;;3.23;;
3941;SDS011;1985;48.592;8.850;2024-02-21T07:58:29;14.40;;;3.20;;
3941;SDS011;1985;48.592;8.850;2024-02-21T08:00:55;14.77;;;2.70;;
3941;SDS011;1985;48.592;8.850;2024-02-21T08:03:21;16.52;;;3.65;;
3941;SDS011;1985;48.592;8.850;2024-02-21T08:05:47;11.93;;;3.00;;
3941;SDS011;1985;48.592;8.850;2024-02-21T08:08:13;14.50;;;3.50;;
3941;SDS011;1985;48.592;8.850;2024-02-21T08:10:43;16.77;;;3.10;;
3941;SDS011;1985;48.592;8.850;2024-02-21T08:13:09;13.63;;;3.30;;
3941;SDS011;1985;48.592;8.850;2024-02-21T08:15:34;18.23;;;3.53;;
3941;SDS011;1985;48.592;8.850;2024-02-21T08:18:00;14.00;;;3.70;;
3941;SDS011;1985;48.592;8.850;2024-02-21T08:20:27;17.33;;;3.50;;
3941;SDS011;1985;48.592;8.850;2024-02-21T08:22:52;16.35;;;4.00;;
3941;SDS011;1985;48.592;8.850;2024-02-21T08:25:18;15.50;;;3.13;;
3941;SDS011;1985;48.592;8.850;2024-02-21T08:27:44;13.95;;;3.60;;
3941;SDS011;1985;48.592;8.850;2024-02-21T08:30:10;16.40;;;3.70;;
3941;SDS011;1985;48.592;8.850;2024-02-21T08:32:36;16.27;;;3.78;;
3941;SDS011;1985;48.592;8.850;2024-02-21T08:35:02;19.60;;;4.00;;
3941;SDS011;1985;48.592;8.850;2024-02-21T08:37:30;17.85;;;3.45;;
3941;SDS011;1985;48.592;8.850;2024-02-21T08:39:56;13.90;;;3.13;;
3941;SDS011;1985;48.592;8.850;2024-02-21T08:42:21;13.53;;;2.80;;
3941;SDS011;1985;48.592;8.850;2024-02-21T08:44:47;14.10;;;3.15;;
3941;SDS011;1985;48.592;8.850;2024-02-21T08:47:12;19.90;;;4.13;;
3941;SDS011;1985;48.592;8.850;2024-02-21T08:49:38;15.02;;;3.40;;
3941;SDS011;1985;48.592;8.850;2024-02-21T08:52:04;16.37;;;3.30;;
3941;SDS011;1985;48.592;8.850;2024-02-21T08:54:30;15.93;;;3.45;;
3941;SDS011;1985;48.592;8.850;2024-02-21T08:56:57;15.40;;;3.37;;
3941;SDS011;1985;48.592;8.850;2024-02-21T08:59:23;15.30;;;3.10;;
3941;SDS011;1985;48.592;8.850;2024-02-21T09:01:50;11.35;;;2.63;;
3941;SDS011;1985;48.592;8.850;2024-02-21T09:04:17;14.75;;;3.10;;
3941;SDS011;1985;48.592;8.850;2024-02-21T09:06:43;14.57;;;3.20;;
3941;SDS011;1985;48.592;8.850;2024-02-21T09:09:10;17.95;;;2.90;;
3941;SDS011;1985;48.592;8.850;2024-02-21T09:11:35;16.60;;;2.67;;
3941;SDS011;1985;48.592;8.850;2024-02-21T09:14:01;14.45;;;3.53;;
3941;SDS011;1985;48.592;8.850;2024-02-21T09:16:29;16.67;;;3.58;;
3941;SDS011;1985;48.592;8.850;2024-02-21T09:18:58;15.75;;;3.20;;
3941;SDS011;1985;48.592;8.850;2024-02-21T09:21:24;20.88;;;4.47;;
3941;SDS011;1985;48.592;8.850;2024-02-21T09:23:49;16.65;;;3.90;;
3941;SDS011;1985;48.592;8.850;2024-02-21T09:26:15;17.23;;;3.47;;
3941;SDS011;1985;48.592;8.850;2024-02-21T09:28:42;15.23;;;2.90;;
3941;SDS011;1985;48.592;8.850;2024-02-21T09:31:08;13.65;;;3.20;;
3941;SDS011;1985;48.592;8.850;2024-02-21T09:33:34;14.97;;;3.07;;
3941;SDS011;1985;48.592;8.850;2024-02-21T09:36:00;16.80;;;3.20;;
3941;SDS011;1985;48.592;8.850;2024-02-21T09:38:26;17.55;;;3.00;;
3941;SDS011;1985;48.592;8.850;2024-02-21T09:40:58;17.08;;;3.58;;
3941;SDS011;1985;48.592;8.850;2024-02-21T09:43:28;16.50;;;3.60;;
3941;SDS011;1985;48.592;8.850;2024-02-21T09:45:54;13.25;;;2.78;;
3941;SDS011;1985;48.592;8.850;2024-02-21T09:48:25;20.63;;;4.80;;
3941;SDS011;1985;48.592;8.850;2024-02-21T09:50:55;16.30;;;3.17;;
3941;SDS011;1985;48.592;8.850;2024-02-21T09:53:22;17.77;;;3.25;;
3941;SDS011;1985;48.592;8.850;2024-02-21T09:55:50;16.65;;;2.90;;
3941;SDS011;1985;48.592;8.850;2024-02-21T09:58:16;17.00;;;3.70;;
3941;SDS011;1985;48.592;8.850;2024-02-21T10:00:43;11.30;;;2.40;;
3941;SDS011;1985;48.592;8.850;2024-02-21T10:03:09;13.90;;;2.53;;
3941;SDS011;1985;48.592;8.850;2024-02-21T10:05:35;14.10;;;2.88;;
3941;SDS011;1985;48.592;8.850;2024-02-21T10:08:02;13.27;;;2.72;;
3941;SDS011;1985;48.592;8.850;2024-02-21T10:10:28;16.70;;;2.80;;
3941;SDS011;1985;48.592;8.850;2024-02-21T10:12:55;13.88;;;2.40;;
3941;SDS011;1985;48.592;8.850;2024-02-21T10:15:23;16.57;;;3.10;;
3941;SDS011;1985;48.592;8.850;2024-02-21T10:17:59;18.40;;;2.73;;
3941;SDS011;1985;48.592;8.850;2024-02-21T10:20:26;14.55;;;3.40;;
3941;SDS011;1985;48.592;8.850;2024-02-21T10:23:01;16.92;;;3.28;;
3941;SDS011;1985;48.592;8.850;2024-02-21T10:25:36;13.60;;;3.00;;
3941;SDS011;1985;48.592;8.850;2024-02-21T10:28:13;14.88;;;2.92;;
3941;SDS011;1985;48.592;8.850;2024-02-21T10:30:49;13.30;;;2.70;;
3941;SDS011;1985;48.592;8.850;2024-02-21T10:33:18;16.48;;;2.60;;
3941;SDS011;1985;48.592;8.850;2024-02-21T10:35:47;17.95;;;2.65;;
3941;SDS011;1985;48.592;8.850;2024-02-21T10:38:14;17.67;;;2.70;;
3941;SDS011;1985;48.592;8.850;2024-02-21T10:40:40;13.13;;;2.40;;
3941;SDS011;1985;48.592;8.850;2024-02-21T10:43:06;12.73;;;2.60;;
3941;SDS011;1985;48.592;8.850;2024-02-21T10:45:37;16.23;;;2.60;;
3941;SDS011;1985;48.592;8.850;2024-02-21T10:48:15;12.32;;;2.08;;
3941;SDS011;1985;48.592;8.850;2024-02-21T10:50:56;12.93;;;2.00;;
3941;SDS011;1985;48.592;8.850;2024-02-21T10:58:50;16.58;;;2.78;;
3941;SDS011;1985;48.592;8.850;2024-02-21T11:01:17;16.05;;;2.33;;
3941;SDS011;1985;48.592;8.850;2024-02-21T11:03:44;14.00;;;2.22;;
3941;SDS011;1985;48.592;8.850;2024-02-21T11:06:12;13.13;;;2.40;;
3941;SDS011;1985;48.592;8.850;2024-02-21T11:08:39;14.15;;;2.40;;
3941;SDS011;1985;48.592;8.850;2024-02-21T11:11:05;12.70;;;2.53;;
3941;SDS011;1985;48.592;8.850;2024-02-21T11:13:31;14.60;;;2.40;;
3941;SDS011;1985;48.592;8.850;2024-02-21T11:16:10;14.60;;;2.33;;
3941;SDS011;1985;48.592;8.850;2024-02-21T11:18:37;15.70;;;2.67;;
3941;SDS011;1985;48.592;8.850;2024-02-21T11:21:03;15.30;;;2.80;;
3941;SDS011;1985;48.592;8.850;2024-02-21T11:23:32;19.83;;;5.13;;
3941;SDS011;1985;48.592;8.850;2024-02-21T11:26:07;11.82;;;2.33;;
3941;SDS011;1985;48.592;8.850;2024-02-21T11:28:33;17.55;;;3.15;;
3941;SDS011;1985;48.592;8.850;2024-02-21T11:31:07;14.73;;;2.60;;
3941;SDS011;1985;48.592;8.850;2024-02-21T11:33:34;15.40;;;2.80;;
3941;SDS011;1985;48.592;8.850;2024-02-21T11:36:00;13.50;;;1.93;;
3941;SDS011;1985;48.592;8.850;2024-02-21T11:38:26;14.15;;;2.10;;
3941;SDS011;1985;48.592;8.850;2024-02-21T11:40:52;14.80;;;2.60;;
3941;SDS011;1985;48.592;8.850;2024-02-21T11:43:17;13.23;;;2.23;;
3941;SDS011;1985;48.592;8.850;2024-02-21T11:45:43;15.38;;;2.70;;
3941;SDS011;1985;48.592;8.850;2024-02-21T11:48:09;12.07;;;2.30;;
3941;SDS011;1985;48.592;8.850;2024-02-21T11:50:35;13.43;;;2.45;;
3941;SDS011;1985;48.592;8.850;2024-02-21T11:53:04;16.95;;;2.47;;
3941;SDS011;1985;48.592;8.850;2024-02-21T11:55:30;14.32;;;2.30;;
3941;SDS011;1985;48.592;8.850;2024-02-21T11:57:56;13.90;;;2.20;;
3941;SDS011;1985;48.592;8.850;2024-02-21T12:00:22;16.45;;;2.33;;
3941;SDS011;1985;48.592;8.850;2024-02-21T12:02:51;12.90;;;2.40;;
3941;SDS011;1985;48.592;8.850;2024-02-21T12:05:18;15.80;;;2.50;;
3941;SDS011;1985;48.592;8.850;2024-02-21T12:07:45;17.20;;;2.70;;
3941;SDS011;1985;48.592;8.850;2024-02-21T12:10:11;14.98;;;2.22;;
3941;SDS011;1985;48.592;8.850;2024-02-21T12:12:38;11.98;;;2.30;;
3941;SDS011;1985;48.592;8.850;2024-02-21T12:15:04;11.40;;;2.08;;
3941;SDS011;1985;48.592;8.850;2024-02-21T12:17:32;9.60;;;1.65;;
3941;SDS011;1985;48.592;8.850;2024-02-21T12:20:05;10.65;;;1.60;;
3941;SDS011;1985;48.592;8.850;2024-02-21T12:22:35;12.73;;;1.98;;
3941;SDS011;1985;48.592;8.850;2024-02-21T12:25:03;11.68;;;1.30;;
3941;SDS011;1985;48.592;8.850;2024-02-21T12:27:43;10.32;;;1.77;;
3941;SDS011;1985;48.592;8.850;2024-02-21T12:30:08;12.57;;;1.58;;
3941;SDS011;1985;48.592;8.850;2024-02-21T12:32:35;10.52;;;1.30;;
3941;SDS011;1985;48.592;8.850;2024-02-21T12:35:01;10.40;;;1.90;;
3941;SDS011;1985;48.592;8.850;2024-02-21T12:37:27;13.85;;;1.70;;
3941;SDS011;1985;48.592;8.850;2024-02-21T12:39:53;15.40;;;1.80;;
3941;SDS011;1985;48.592;8.850;2024-02-21T12:42:18;12.07;;;1.88;;
3941;SDS011;1985;48.592;8.850;2024-02-21T12:44:44;11.50;;;1.50;;
3941;SDS011;1985;48.592;8.850;2024-02-21T12:47:10;15.35;;;2.30;;
3941;SDS011;1985;48.592;8.850;2024-02-21T12:49:37;10.02;;;1.60;;
3941;SDS011;1985;48.592;8.850;2024-02-21T12:52:03;11.73;;;1.55;;
3941;SDS011;1985;48.592;8.850;2024-02-21T12:54:29;11.75;;;2.00;;
3941;SDS011;1985;48.592;8.850;2024-02-21T12:56:56;11.23;;;1.60;;
3941;SDS011;1985;48.592;8.850;2024-02-21T12:59:21;12.00;;;2.10;;
3941;SDS011;1985;48.592;8.850;2024-02-21T13:01:48;12.13;;;1.97;;
3941;SDS011;1985;48.592;8.850;2024-02-21T13:04:13;13.07;;;2.00;;
3941;SDS011;1985;48.592;8.850;2024-02-21T13:06:39;9.60;;;1.50;;
3941;SDS011;1985;48.592;8.850;2024-02-21T13:09:05;12.60;;;2.10;;
3941;SDS011;1985;48.592;8.850;2024-02-21T13:11:34;10.70;;;1.85;;
3941;SDS011;1985;48.592;8.850;2024-02-21T13:14:00;13.63;;;1.93;;
3941;SDS011;1985;48.592;8.850;2024-02-21T13:16:25;14.20;;;2.38;;
3941;SDS011;1985;48.592;8.850;2024-02-21T13:18:52;13.02;;;1.60;;
3941;SDS011;1985;48.592;8.850;2024-02-21T13:21:17;11.30;;;1.80;;
3941;SDS011;1985;48.592;8.850;2024-02-21T13:23:43;10.03;;;1.10;;
3941;SDS011;1985;48.592;8.850;2024-02-21T13:26:09;10.60;;;1.30;;
3941;SDS011;1985;48.592;8.850;2024-02-21T13:28:36;10.20;;;1.47;;
3941;SDS011;1985;48.592;8.850;2024-02-21T13:31:01;9.60;;;1.40;;
3941;SDS011;1985;48.592;8.850;2024-02-21T13:33:28;10.82;;;1.60;;
3941;SDS011;1985;48.592;8.850;2024-02-21T13:35:54;11.50;;;1.45;;
3941;SDS011;1985;48.592;8.850;2024-02-21T13:38:19;10.60;;;1.50;;
3941;SDS011;1985;48.592;8.850;2024-02-21T13:40:45;10.47;;;1.50;;
3941;SDS011;1985;48.592;8.850;2024-02-21T13:43:11;11.18;;;1.80;;
3941;SDS011;1985;48.592;8.850;2024-02-21T13:45:37;10.55;;;1.40;;
3941;SDS011;1985;48.592;8.850;2024-02-21T13:48:03;9.90;;;1.50;;
3941;SDS011;1985;48.592;8.850;2024-02-21T13:50:31;11.17;;;2.00;;
3941;SDS011;1985;48.592;8.850;2024-02-21T13:52:57;11.25;;;1.80;;
3941;SDS011;1985;48.592;8.850;2024-02-21T13:55:23;14.30;;;1.95;;
3941;SDS011;1985;48.592;8.850;2024-02-21T13:57:51;14.30;;;1.90;;
3941;SDS011;1985;48.592;8.850;2024-02-21T14:00:17;11.05;;;1.83;;
3941;SDS011;1985;48.592;8.850;2024-02-21T14:02:43;12.90;;;1.73;;
3941;SDS011;1985;48.592;8.850;2024-02-21T14:05:09;9.93;;;1.70;;
3941;SDS011;1985;48.592;8.850;2024-02-21T14:07:35;12.02;;;1.77;;
3941;SDS011;1985;48.592;8.850;2024-02-21T14:10:01;10.17;;;1.70;;
3941;SDS011;1985;48.592;8.850;2024-02-21T14:12:28;11.45;;;2.08;;
3941;SDS011;1985;48.592;8.850;2024-02-21T14:14:54;14.30;;;2.03;;
3941;SDS011;1985;48.592;8.850;2024-02-21T14:17:23;11.15;;;2.20;;
3941;SDS011;1985;48.592;8.850;2024-02-21T14:19:49;9.57;;;1.70;;
3941;SDS011;1985;48.592;8.850;2024-02-21T14:22:16;10.85;;;1.85;;
3941;SDS011;1985;48.592;8.850;2024-02-21T14:24:42;10.40;;;2.00;;
3941;SDS011;1985;48.592;8.850;2024-02-21T14:27:08;9.70;;;1.80;;
3941;SDS011;1985;48.592;8.850;2024-02-21T14:29:34;11.63;;;1.93;;
3941;SDS011;1985;48.592;8.850;2024-02-21T14:32:00;12.63;;;2.30;;
3941;SDS011;1985;48.592;8.850;2024-02-21T14:34:25;14.35;;;1.70;;
3941;SDS011;1985;48.592;8.850;2024-02-21T14:36:51;12.20;;;2.00;;
3941;SDS011;1985;48.592;8.850;2024-02-21T14:39:17;11.45;;;1.90;;
3941;SDS011;1985;48.592;8.850;2024-02-21T14:41:43;10.63;;;1.90;;
3941;SDS011;1985;48.592;8.850;2024-02-21T14:44:08;12.60;;;2.00;;
3941;SDS011;1985;48.592;8.850;2024-02-21T14:46:35;11.98;;;2.10;;
3941;SDS011;1985;48.592;8.850;2024-02-21T14:49:02;11.50;;;1.90;;
3941;SDS011;1985;48.592;8.850;2024-02-21T14:51:28;11.47;;;2.03;;
3941;SDS011;1985;48.592;8.850;2024-02-21T14:53:54;10.30;;;2.07;;
3941;SDS011;1985;48.592;8.850;2024-02-21T14:56:20;12.17;;;2.00;;
3941;SDS011;1985;48.592;8.850;2024-02-21T14:58:46;14.60;;;1.80;;
3941;SDS011;1985;48.592;8.850;2024-02-21T15:01:12;11.48;;;2.10;;
3941;SDS011;1985;48.592;8.850;2024-02-21T15:03:38;11.75;;;1.85;;